Time,TemperatureF,DewpointF,PressureIn,WindDirection,WindDirectionDegrees,WindSpeedMPH,WindSpeedGustMPH,Humidity,HourlyPrecipIn,Conditions,Clouds,dailyrainin,SolarRadiationWatts/m^2,SoftwareType,DateUTC
2013-07-16 10:43:00,69.0,38.0,-100.00,North,3,11.0,16.0,32,-99.99,,,0.00,546.000000,,2013-07-16 17:43:00,
2013-07-16 10:53:00,69.0,38.0,-100.00,North,3,11.0,16.0,32,-99.99,,,0.00,546.000000,,2013-07-16 17:53:00,
2013-07-16 11:01:00,69.0,38.0,-100.00,North,3,11.0,16.0,32,-99.99,,,0.00,546.000000,,2013-07-16 18:01:00,
2013-07-16 11:33:00,73.0,39.0,-100.00,North,360,11.0,20.0,29,0.00,,,0.00,759.000000,,2013-07-16 18:33:00,
2013-07-16 11:43:00,73.0,39.0,-100.00,North,360,11.0,20.0,29,0.00,,,0.00,759.000000,,2013-07-16 18:43:00,
2013-07-16 11:52:00,73.0,39.0,-100.00,North,360,11.0,20.0,29,0.00,,,0.00,759.000000,,2013-07-16 18:52:00,
2013-07-16 12:01:00,73.0,39.0,-100.00,North,360,11.0,20.0,29,0.00,,,0.00,759.000000,,2013-07-16 19:01:00,
2013-07-16 12:02:00,73.0,38.0,-100.00,NNE,15,9.0,20.0,28,0.00,,,0.00,650.000000,,2013-07-16 19:02:00,
2013-07-16 12:32:00,73.0,38.0,-100.00,NNE,15,9.0,20.0,28,0.00,,,0.00,650.000000,,2013-07-16 19:32:00,
2013-07-16 12:43:00,73.0,38.0,-100.00,NNE,15,9.0,20.0,28,0.00,,,0.00,650.000000,,2013-07-16 19:43:00,
2013-07-16 12:52:00,73.0,38.0,-100.00,NNE,15,9.0,20.0,28,0.00,,,0.00,650.000000,,2013-07-16 19:52:00,
2013-07-16 13:32:00,77.0,38.0,-100.00,North,350,11.0,19.0,25,0.00,,,0.00,519.000000,,2013-07-16 20:32:00,
2013-07-16 13:43:00,77.0,38.0,-100.00,North,350,11.0,19.0,25,0.00,,,0.00,519.000000,,2013-07-16 20:43:00,
2013-07-16 13:52:00,77.0,38.0,-100.00,North,350,11.0,19.0,25,0.00,,,0.00,519.000000,,2013-07-16 20:52:00,
2013-07-16 14:01:00,77.0,38.0,-100.00,North,350,11.0,19.0,25,0.00,,,0.00,519.000000,,2013-07-16 21:01:00,
2013-07-16 14:32:00,77.0,37.0,-100.00,NNW,344,8.0,18.0,24,0.00,,,0.00,593.000000,,2013-07-16 21:32:00,
2013-07-16 14:43:00,77.0,37.0,-100.00,NNW,344,8.0,18.0,24,0.00,,,0.00,593.000000,,2013-07-16 21:43:00,
2013-07-16 14:52:00,77.0,37.0,-100.00,NNW,344,8.0,18.0,24,0.00,,,0.00,593.000000,,2013-07-16 21:52:00,
2013-07-16 15:01:00,77.0,37.0,-100.00,NNW,344,8.0,18.0,24,0.00,,,0.00,593.000000,,2013-07-16 22:01:00,
2013-07-16 15:33:00,82.0,38.0,-100.00,NNW,335,9.0,15.0,21,0.00,,,0.00,673.000000,,2013-07-16 22:33:00,
2013-07-16 15:43:00,82.0,38.0,-100.00,NNW,335,9.0,15.0,21,0.00,,,0.00,673.000000,,2013-07-16 22:43:00,
2013-07-16 15:52:00,82.0,38.0,-100.00,NNW,335,9.0,15.0,21,0.00,,,0.00,673.000000,,2013-07-16 22:52:00,
2013-07-16 16:01:00,82.0,38.0,-100.00,NNW,335,9.0,15.0,21,0.00,,,0.00,673.000000,,2013-07-16 23:01:00,
2013-07-16 16:32:00,80.0,39.0,-100.00,NW,326,7.0,16.0,23,0.00,,,0.00,522.000000,,2013-07-16 23:32:00,
2013-07-16 16:43:00,80.0,39.0,-100.00,NW,326,7.0,16.0,23,0.00,,,0.00,522.000000,,2013-07-16 23:43:00,
2013-07-16 16:52:00,80.0,39.0,-100.00,NW,326,7.0,16.0,23,0.00,,,0.00,522.000000,,2013-07-16 23:52:00,
2013-07-16 17:01:00,80.0,39.0,-100.00,NW,326,7.0,16.0,23,0.00,,,0.00,522.000000,,2013-07-17 00:01:00,
2013-07-16 17:33:00,83.0,38.0,-100.00,NNW,336,9.0,16.0,20,0.00,,,0.00,690.000000,,2013-07-17 00:33:00,
2013-07-16 17:42:00,83.0,38.0,-100.00,NNW,336,9.0,16.0,20,0.00,,,0.00,690.000000,,2013-07-17 00:42:00,
2013-07-16 17:52:00,83.0,38.0,-100.00,NNW,336,9.0,16.0,20,0.00,,,0.00,690.000000,,2013-07-17 00:52:00,
2013-07-16 18:01:00,83.0,38.0,-100.00,NNW,336,9.0,16.0,20,0.00,,,0.00,690.000000,,2013-07-17 01:01:00,
2013-07-16 18:32:00,83.0,38.0,-100.00,NNW,334,9.0,18.0,20,0.00,,,0.00,530.000000,,2013-07-17 01:32:00,
2013-07-16 18:43:00,83.0,38.0,-100.00,NNW,334,9.0,18.0,20,0.00,,,0.00,530.000000,,2013-07-17 01:43:00,
2013-07-16 18:53:00,83.0,38.0,-100.00,NNW,334,9.0,18.0,20,0.00,,,0.00,530.000000,,2013-07-17 01:53:00,
2013-07-16 19:01:00,83.0,38.0,-100.00,NNW,334,9.0,18.0,20,0.00,,,0.00,530.000000,,2013-07-17 02:01:00,
2013-07-16 19:32:00,82.0,38.0,-100.00,NNW,339,8.0,17.0,21,0.00,,,-99.99,350.000000,,2013-07-17 02:32:00,
2013-07-16 19:43:00,82.0,38.0,-100.00,NNW,339,8.0,17.0,21,0.00,,,-99.99,350.000000,,2013-07-17 02:43:00,
2013-07-16 19:53:00,82.0,38.0,-100.00,NNW,339,8.0,17.0,21,0.00,,,-99.99,350.000000,,2013-07-17 02:53:00,
2013-07-16 20:01:00,82.0,38.0,-100.00,NNW,339,8.0,17.0,21,0.00,,,-99.99,350.000000,,2013-07-17 03:01:00,
2013-07-16 20:32:00,79.0,37.0,-100.00,North,4,11.0,16.0,22,0.00,,,0.00,169.000000,,2013-07-17 03:32:00,
2013-07-16 20:43:00,79.0,37.0,-100.00,North,4,11.0,16.0,22,0.00,,,0.00,169.000000,,2013-07-17 03:43:00,
2013-07-16 20:53:00,79.0,37.0,-100.00,North,4,11.0,16.0,22,0.00,,,0.00,169.000000,,2013-07-17 03:53:00,
2013-07-16 21:01:00,79.0,37.0,-100.00,North,4,11.0,16.0,22,0.00,,,0.00,169.000000,,2013-07-17 04:01:00,
2013-07-16 21:22:00,74.0,36.0,-100.00,NNE,30,5.0,15.0,25,0.00,,,-99.99,26.000000,,2013-07-17 04:22:00,
2013-07-16 21:32:00,74.0,36.0,-100.00,NNE,30,5.0,15.0,25,0.00,,,-99.99,26.000000,,2013-07-17 04:32:00,
2013-07-16 21:43:00,74.0,36.0,-100.00,NNE,30,5.0,15.0,25,0.00,,,-99.99,26.000000,,2013-07-17 04:43:00,
2013-07-16 21:53:00,74.0,36.0,-100.00,NNE,30,5.0,15.0,25,0.00,,,-99.99,26.000000,,2013-07-17 04:53:00,
2013-07-16 22:01:00,74.0,36.0,-100.00,NNE,30,5.0,15.0,25,0.00,,,-99.99,26.000000,,2013-07-17 05:01:00,
2013-07-16 22:32:00,70.0,35.0,-100.00,NW,314,1.0,9.0,28,0.00,,,-99.99,1.000000,,2013-07-17 05:32:00,
2013-07-16 22:43:00,70.0,35.0,-100.00,NW,314,1.0,9.0,28,0.00,,,-99.99,1.000000,,2013-07-17 05:43:00,
2013-07-16 23:33:00,68.0,42.0,-100.00,SSW,195,4.0,8.0,39,0.00,,,-99.99,1.000000,,2013-07-17 06:33:00,
2013-07-16 23:43:00,68.0,42.0,-100.00,SSW,195,4.0,8.0,39,0.00,,,-99.99,1.000000,,2013-07-17 06:43:00,
2013-07-16 23:52:00,68.0,42.0,-100.00,SSW,195,4.0,8.0,39,0.00,,,-99.99,1.000000,,2013-07-17 06:52:00,